createdAt,value
2018-05-06T00:00:50.872Z,12.44
2018-05-06T00:01:50.784Z,12.44
2018-05-06T00:03:43.722Z,12.46
2018-05-06T00:04:43.637Z,12.45
2018-05-06T00:06:36.574Z,12.42
2018-05-06T00:07:36.484Z,12.45
2018-05-06T00:09:29.424Z,12.38
2018-05-06T00:10:29.341Z,12.30
2018-05-06T00:12:22.276Z,12.24
2018-05-06T00:13:22.187Z,12.29
2018-05-06T00:15:15.199Z,12.19
2018-05-06T00:16:15.038Z,12.19
2018-05-06T00:18:07.981Z,12.16
2018-05-06T00:19:07.888Z,12.16
2018-05-06T00:21:00.831Z,12.15
2018-05-06T00:22:00.743Z,12.13
2018-05-06T00:23:53.684Z,12.02
2018-05-06T00:24:53.592Z,12.12
2018-05-06T00:26:46.536Z,11.99
2018-05-06T00:27:46.441Z,12.01
2018-05-06T00:29:39.383Z,11.96
2018-05-06T00:30:39.294Z,11.97
2018-05-06T00:32:32.234Z,11.90
2018-05-06T00:33:32.186Z,11.96
2018-05-06T00:35:25.086Z,11.86
2018-05-06T00:36:24.999Z,11.74
2018-05-06T00:38:17.934Z,11.75
2018-05-06T00:39:17.852Z,11.74
2018-05-06T00:41:10.787Z,11.67
2018-05-06T00:42:10.692Z,11.65
2018-05-06T00:44:03.578Z,11.65
2018-05-06T00:45:03.546Z,11.61
2018-05-06T00:46:56.479Z,11.59
2018-05-06T00:47:56.397Z,11.52
2018-05-06T00:49:49.337Z,11.59
2018-05-06T00:50:49.247Z,11.57
2018-05-06T00:52:42.190Z,11.59
2018-05-06T00:53:42.095Z,11.54
2018-05-06T00:55:35.037Z,11.56
2018-05-06T00:56:34.952Z,11.52
2018-05-06T00:58:27.886Z,11.56
2018-05-06T00:59:27.799Z,11.43
2018-05-06T01:01:20.781Z,11.50
2018-05-06T01:02:20.654Z,11.50
2018-05-06T01:04:13.589Z,11.41
2018-05-06T01:05:13.500Z,11.43
2018-05-06T01:07:06.440Z,11.35
2018-05-06T01:08:06.349Z,11.20
2018-05-06T01:09:59.285Z,11.25
2018-05-06T01:10:59.195Z,11.19
2018-05-06T01:12:52.146Z,11.24
2018-05-06T01:13:52.053Z,11.21
2018-05-06T01:15:44.935Z,11.29
2018-05-06T01:16:44.904Z,11.20
2018-05-06T01:18:37.842Z,11.29
2018-05-06T01:19:37.757Z,11.27
2018-05-06T01:21:30.692Z,11.19
2018-05-06T01:22:30.606Z,11.14
2018-05-06T01:24:23.545Z,11.14
2018-05-06T01:25:23.458Z,11.17
2018-05-06T01:27:16.398Z,11.07
2018-05-06T01:28:16.302Z,11.09
2018-05-06T01:30:09.248Z,11.06
2018-05-06T01:31:09.157Z,11.09
2018-05-06T01:33:02.101Z,11.06
2018-05-06T01:34:02.012Z,11.01
2018-05-06T01:35:54.943Z,11.02
2018-05-06T01:36:54.857Z,11.02
2018-05-06T01:38:47.797Z,11.06
2018-05-06T01:39:47.708Z,10.96
2018-05-06T01:41:40.650Z,10.98
2018-05-06T01:42:40.561Z,10.89
2018-05-06T01:44:33.500Z,10.83
2018-05-06T01:45:33.410Z,10.84
2018-05-06T01:47:26.352Z,10.91
2018-05-06T01:48:26.258Z,10.83
2018-05-06T01:50:19.202Z,10.86
2018-05-06T01:51:19.110Z,10.80
2018-05-06T01:53:12.055Z,10.77
2018-05-06T01:54:11.968Z,10.71
2018-05-06T01:56:04.905Z,10.73
2018-05-06T01:57:04.822Z,10.71
2018-05-06T01:58:57.755Z,10.71
2018-05-06T01:59:57.662Z,10.76
2018-05-06T02:01:50.605Z,10.68
2018-05-06T02:02:50.515Z,10.65
2018-05-06T02:04:43.457Z,10.62
2018-05-06T02:05:43.371Z,10.55
2018-05-06T02:07:36.307Z,10.68
2018-05-06T02:08:36.219Z,10.68
2018-05-06T02:10:29.162Z,10.66
2018-05-06T02:11:29.067Z,10.60
2018-05-06T02:13:22.009Z,10.63
2018-05-06T02:14:21.918Z,10.60
2018-05-06T02:16:14.858Z,10.52
2018-05-06T02:17:14.769Z,10.46
2018-05-06T02:19:07.720Z,10.43
2018-05-06T02:20:07.626Z,10.42
2018-05-06T02:22:00.562Z,10.44
2018-05-06T02:23:00.473Z,10.42
2018-05-06T02:24:53.416Z,10.44
2018-05-06T02:25:53.322Z,10.40
2018-05-06T02:27:46.270Z,10.44
2018-05-06T02:28:46.184Z,10.42
2018-05-06T02:30:39.120Z,10.43
2018-05-06T02:31:39.033Z,10.34
2018-05-06T02:33:46.410Z,10.46
2018-05-06T02:34:36.049Z,10.28
2018-05-06T02:35:36.292Z,10.37
2018-05-06T02:36:35.470Z,10.30
2018-05-06T02:37:36.352Z,10.37
2018-05-06T02:38:35.591Z,10.34
2018-05-06T02:39:34.553Z,10.33
2018-05-06T02:40:34.534Z,10.33
2018-05-06T02:41:35.074Z,10.34
2018-05-06T02:42:34.749Z,10.37
2018-05-06T02:43:32.863Z,10.28
2018-05-06T02:44:33.118Z,10.25
2018-05-06T02:45:32.419Z,10.24
2018-05-06T02:46:34.671Z,10.18
2018-05-06T02:47:33.558Z,10.09
2018-05-06T02:48:34.471Z,10.06
2018-05-06T02:49:34.779Z,10.18
2018-05-06T02:50:33.943Z,10.09
2018-05-06T02:51:34.061Z,10.17
2018-05-06T02:52:33.703Z,10.10
2018-05-06T02:53:33.084Z,10.15
2018-05-06T02:54:35.263Z,10.14
2018-05-06T02:55:33.883Z,9.99
2018-05-06T02:56:34.864Z,10.17
2018-05-06T02:57:33.264Z,10.12
2018-05-06T02:58:35.506Z,9.99
2018-05-06T02:59:33.206Z,10.09
2018-05-06T03:00:33.069Z,10.00
2018-05-06T03:01:32.827Z,9.99
2018-05-06T03:02:35.587Z,9.99
2018-05-06T03:03:35.711Z,10.07
2018-05-06T03:04:33.649Z,10.03
2018-05-06T03:05:33.211Z,10.03
2018-05-06T03:06:33.050Z,10.00
2018-05-06T03:07:31.625Z,9.97
2018-05-06T03:08:31.081Z,9.96
2018-05-06T03:09:31.085Z,9.91
2018-05-06T03:10:31.062Z,9.96
2018-05-06T03:11:31.054Z,9.89
2018-05-06T03:12:31.015Z,9.97
2018-05-06T03:13:30.998Z,9.91
2018-05-06T03:14:30.911Z,9.88
2018-05-06T03:15:30.932Z,9.86
2018-05-06T03:16:30.896Z,9.88
2018-05-06T03:17:30.957Z,9.93
2018-05-06T03:18:30.885Z,9.86
2018-05-06T03:19:30.826Z,9.83
2018-05-06T03:20:30.816Z,9.94
2018-05-06T03:21:30.735Z,9.73
2018-05-06T03:22:30.781Z,9.75
2018-05-06T03:23:30.745Z,9.81
2018-05-06T03:24:30.729Z,9.78
2018-05-06T03:25:30.644Z,9.68
2018-05-06T03:26:30.675Z,9.76
2018-05-06T03:27:30.650Z,9.78
2018-05-06T03:28:30.645Z,9.75
2018-05-06T03:29:30.592Z,9.66
2018-05-06T03:30:30.594Z,9.71
2018-05-06T03:31:30.572Z,9.70
2018-05-06T03:32:30.507Z,9.75
2018-05-06T03:33:30.486Z,9.70
2018-05-06T03:34:30.483Z,9.73
2018-05-06T03:35:30.430Z,9.76
2018-05-06T03:36:30.453Z,9.64
2018-05-06T03:37:30.359Z,9.63
2018-05-06T03:38:30.405Z,9.61
2018-05-06T03:39:30.331Z,9.67
2018-05-06T03:40:30.311Z,9.71
2018-05-06T03:41:30.314Z,9.64
2018-05-06T03:42:30.267Z,9.63
2018-05-06T03:43:30.264Z,9.68
2018-05-06T03:44:30.238Z,9.70
2018-05-06T03:45:30.239Z,9.63
2018-05-06T03:46:30.195Z,9.64
2018-05-06T03:47:30.136Z,9.60
2018-05-06T03:48:30.064Z,9.61
2018-05-06T03:49:30.079Z,9.64
2018-05-06T03:50:30.071Z,9.56
2018-05-06T03:51:30.011Z,9.63
2018-05-06T03:52:29.999Z,9.63
2018-05-06T03:53:29.993Z,9.52
2018-05-06T03:54:30.016Z,9.58
2018-05-06T03:55:29.909Z,9.60
2018-05-06T03:56:29.929Z,9.61
2018-05-06T03:57:29.886Z,9.64
2018-05-06T03:58:29.865Z,9.57
2018-05-06T03:59:29.826Z,9.49
2018-05-06T04:00:29.934Z,9.52
2018-05-06T04:01:29.837Z,9.52
2018-05-06T04:02:29.749Z,9.52
2018-05-06T04:03:29.754Z,9.52
2018-05-06T04:04:29.728Z,9.49
2018-05-06T04:05:29.765Z,9.42
2018-05-06T04:06:29.657Z,9.52
2018-05-06T04:07:29.601Z,9.50
2018-05-06T04:08:29.668Z,9.40
2018-05-06T04:09:29.616Z,9.38
2018-05-06T04:10:29.621Z,9.49
2018-05-06T04:11:29.560Z,9.50
2018-05-06T04:12:29.524Z,9.45
2018-05-06T04:13:29.484Z,9.46
2018-05-06T04:14:29.452Z,9.34
2018-05-06T04:15:29.423Z,9.39
2018-05-06T04:16:29.406Z,9.42
2018-05-06T04:17:29.367Z,9.40
2018-05-06T04:18:29.354Z,9.40
2018-05-06T04:19:29.321Z,9.48
2018-05-06T04:20:29.348Z,9.50
2018-05-06T04:21:29.278Z,9.43
2018-05-06T04:22:29.315Z,9.48
2018-05-06T04:23:29.301Z,9.46
2018-05-06T04:24:29.272Z,9.52
2018-05-06T04:25:29.156Z,9.57
2018-05-06T04:26:29.188Z,9.48
2018-05-06T04:27:29.176Z,9.49
2018-05-06T04:28:29.170Z,9.52
2018-05-06T04:29:29.119Z,9.52
2018-05-06T04:30:29.143Z,9.57
2018-05-06T04:31:29.067Z,9.56
2018-05-06T04:32:29.028Z,9.57
2018-05-06T04:33:29.011Z,9.53
2018-05-06T04:34:28.970Z,9.50
2018-05-06T04:35:28.964Z,9.53
2018-05-06T04:36:28.877Z,9.49
2018-05-06T04:37:28.930Z,9.53
2018-05-06T04:38:28.883Z,9.57
2018-05-06T04:39:28.867Z,9.53
2018-05-06T04:40:28.850Z,9.60
2018-05-06T04:41:28.838Z,9.58
2018-05-06T04:42:28.779Z,9.46
2018-05-06T04:43:28.804Z,9.49
2018-05-06T04:44:28.766Z,9.57
2018-05-06T04:45:28.680Z,9.63
2018-05-06T04:46:28.733Z,9.60
2018-05-06T04:47:28.621Z,9.61
2018-05-06T04:48:28.654Z,9.63
2018-05-06T04:49:28.642Z,9.63
2018-05-06T04:50:28.571Z,9.76
2018-05-06T04:51:28.558Z,9.71
2018-05-06T04:52:28.557Z,9.76
2018-05-06T04:53:28.482Z,9.81
2018-05-06T04:54:28.475Z,9.76
2018-05-06T04:55:28.458Z,9.88
2018-05-06T04:56:28.505Z,9.82
2018-05-06T04:57:28.426Z,9.82
2018-05-06T04:58:28.403Z,9.81
2018-05-06T04:59:28.399Z,9.93
2018-05-06T05:00:28.318Z,9.82
2018-05-06T05:01:28.394Z,9.89
2018-05-06T05:02:28.265Z,9.93
2018-05-06T05:03:28.245Z,9.94
2018-05-06T05:04:28.260Z,9.94
2018-05-06T05:05:28.182Z,10.01
2018-05-06T05:06:28.176Z,9.96
2018-05-06T05:07:28.269Z,10.03
2018-05-06T05:08:28.120Z,10.01
2018-05-06T05:09:28.115Z,10.12
2018-05-06T05:10:28.093Z,10.12
2018-05-06T05:11:28.101Z,10.09
2018-05-06T05:12:28.048Z,10.21
2018-05-06T05:13:28.004Z,10.21
2018-05-06T05:14:28.012Z,10.24
2018-05-06T05:15:28.014Z,10.24
2018-05-06T05:16:27.897Z,10.34
2018-05-06T05:17:27.919Z,10.34
2018-05-06T05:18:27.948Z,10.33
2018-05-06T05:19:27.891Z,10.39
2018-05-06T05:20:27.835Z,10.51
2018-05-06T05:21:27.863Z,10.46
2018-05-06T05:22:27.762Z,10.52
2018-05-06T05:23:27.741Z,10.43
2018-05-06T05:24:27.720Z,10.44
2018-05-06T05:25:27.794Z,10.52
2018-05-06T05:26:27.681Z,10.53
2018-05-06T05:27:27.687Z,10.56
2018-05-06T05:28:27.608Z,10.65
2018-05-06T05:29:27.591Z,10.70
2018-05-06T05:30:27.614Z,10.77
2018-05-06T05:31:27.582Z,10.80
2018-05-06T05:32:27.513Z,10.77
2018-05-06T05:33:27.558Z,10.91
2018-05-06T05:34:27.585Z,10.89
2018-05-06T05:35:27.416Z,10.91
2018-05-06T05:36:27.451Z,10.98
2018-05-06T05:37:27.471Z,11.03
2018-05-06T05:38:27.405Z,10.96
2018-05-06T05:39:27.374Z,11.02
2018-05-06T05:40:27.317Z,11.14
2018-05-06T05:41:27.373Z,11.10
2018-05-06T05:42:27.305Z,11.20
2018-05-06T05:43:27.225Z,11.16
2018-05-06T05:44:27.307Z,11.24
2018-05-06T05:45:27.297Z,11.25
2018-05-06T05:46:27.221Z,11.29
2018-05-06T05:47:27.190Z,11.29
2018-05-06T05:48:27.230Z,11.31
2018-05-06T05:49:27.110Z,11.43
2018-05-06T05:50:27.136Z,11.39
2018-05-06T05:51:27.132Z,11.47
2018-05-06T05:52:27.055Z,11.44
2018-05-06T05:53:27.000Z,11.54
2018-05-06T05:54:27.044Z,11.62
2018-05-06T05:55:26.981Z,11.64
2018-05-06T05:56:26.953Z,11.67
2018-05-06T05:57:26.958Z,11.77
2018-05-06T05:58:26.873Z,11.80
2018-05-06T05:59:26.937Z,11.72
2018-05-06T06:00:26.922Z,11.83
2018-05-06T06:01:26.900Z,11.85
2018-05-06T06:02:26.832Z,12.04
2018-05-06T06:03:26.807Z,12.01
2018-05-06T06:04:26.831Z,12.05
2018-05-06T06:05:26.744Z,12.13
2018-05-06T06:06:26.729Z,12.19
2018-05-06T06:07:26.786Z,12.30
2018-05-06T06:08:26.666Z,12.31
2018-05-06T06:09:26.647Z,12.39
2018-05-06T06:10:26.672Z,12.39
2018-05-06T06:11:26.669Z,12.54
2018-05-06T06:12:26.655Z,12.67
2018-05-06T06:13:26.567Z,12.69
2018-05-06T06:14:26.567Z,12.75
2018-05-06T06:15:26.554Z,12.71
2018-05-06T06:16:26.488Z,12.78
2018-05-06T06:17:26.479Z,12.88
2018-05-06T06:18:26.599Z,12.88
2018-05-06T06:19:26.447Z,12.88
2018-05-06T06:20:26.414Z,12.99
2018-05-06T06:21:26.332Z,12.99
2018-05-06T06:22:26.341Z,13.09
2018-05-06T06:23:33.664Z,13.11
2018-05-06T06:25:19.284Z,13.15
2018-05-06T06:26:19.242Z,13.27
2018-05-06T06:28:12.399Z,13.40
2018-05-06T06:29:12.192Z,13.37
2018-05-06T06:31:05.188Z,13.55
2018-05-06T06:32:05.152Z,13.51
2018-05-06T06:33:58.299Z,13.70
2018-05-06T06:34:58.106Z,13.69
2018-05-06T06:36:51.265Z,13.81
2018-05-06T06:37:51.058Z,13.88
2018-05-06T06:39:44.222Z,13.91
2018-05-06T06:40:44.020Z,14.10
2018-05-06T06:42:37.174Z,14.17
2018-05-06T06:43:36.974Z,14.21
2018-05-06T06:45:30.128Z,14.31
2018-05-06T06:46:29.936Z,14.32
2018-05-06T06:48:23.082Z,14.47
2018-05-06T06:49:22.884Z,14.50
2018-05-06T06:51:16.038Z,14.62
2018-05-06T06:52:15.843Z,14.56
2018-05-06T06:54:08.993Z,14.67
2018-05-06T06:55:08.794Z,14.74
2018-05-06T06:57:01.948Z,14.80
2018-05-06T06:58:01.749Z,14.87
2018-05-06T06:59:54.904Z,14.88
2018-05-06T07:00:54.704Z,14.88
2018-05-06T07:02:47.697Z,15.05
2018-05-06T07:03:47.661Z,15.11
2018-05-06T07:05:40.812Z,15.17
2018-05-06T07:06:40.615Z,15.19
2018-05-06T07:08:33.768Z,15.30
2018-05-06T07:09:33.572Z,15.35
2018-05-06T07:11:26.723Z,15.41
2018-05-06T07:12:26.529Z,15.42
2018-05-06T07:14:19.679Z,15.56
2018-05-06T07:15:19.480Z,15.54
2018-05-06T07:17:12.634Z,15.63
2018-05-06T07:18:12.440Z,15.76
2018-05-06T07:20:05.590Z,15.85
2018-05-06T07:21:05.393Z,15.84
2018-05-06T07:22:58.562Z,15.92
2018-05-06T07:23:58.350Z,15.86
2018-05-06T07:25:51.502Z,15.89
2018-05-06T07:26:51.306Z,15.93
2018-05-06T07:28:44.457Z,16.00
2018-05-06T07:29:44.259Z,16.11
2018-05-06T07:31:37.415Z,16.14
2018-05-06T07:32:37.216Z,16.23
2018-05-06T07:34:30.269Z,16.33
2018-05-06T07:35:30.170Z,16.34
2018-05-06T07:37:23.220Z,16.45
2018-05-06T07:38:23.125Z,16.42
2018-05-06T07:40:16.191Z,16.49
2018-05-06T07:41:16.081Z,16.53
2018-05-06T07:43:09.135Z,16.55
2018-05-06T07:44:09.034Z,16.67
2018-05-06T07:46:01.988Z,16.75
2018-05-06T07:47:01.896Z,16.78
2018-05-06T07:48:54.891Z,16.88
2018-05-06T07:49:54.749Z,16.90
2018-05-06T07:51:47.690Z,16.96
2018-05-06T07:52:47.603Z,16.93
2018-05-06T07:54:40.544Z,16.98
2018-05-06T07:55:40.457Z,17.06
2018-05-06T07:57:33.502Z,17.07
2018-05-06T07:58:33.409Z,17.06
2018-05-06T08:00:26.462Z,17.08
2018-05-06T08:01:26.365Z,17.08
2018-05-06T08:03:19.413Z,17.29
2018-05-06T08:04:19.327Z,17.44
2018-05-06T08:06:12.371Z,17.53
2018-05-06T08:07:12.278Z,17.53
2018-05-06T08:09:05.320Z,17.64
2018-05-06T08:10:05.232Z,17.63
2018-05-06T08:11:58.277Z,17.66
2018-05-06T08:12:58.186Z,17.74
2018-05-06T08:14:51.238Z,17.78
2018-05-06T08:15:51.141Z,17.73
2018-05-06T08:17:44.704Z,17.88
2018-05-06T08:18:44.607Z,17.94
2018-05-06T08:20:37.649Z,18.00
2018-05-06T08:21:37.564Z,18.06
2018-05-06T08:23:30.612Z,18.21
2018-05-06T08:24:30.518Z,18.28
2018-05-06T08:26:23.567Z,18.29
2018-05-06T08:27:23.475Z,18.31
2018-05-06T08:29:16.653Z,18.37
2018-05-06T08:30:16.429Z,18.47
2018-05-06T08:32:09.480Z,18.47
2018-05-06T08:33:09.387Z,18.47
2018-05-06T08:35:02.540Z,18.57
2018-05-06T08:36:02.346Z,18.62
2018-05-06T08:37:55.491Z,18.73
2018-05-06T08:38:55.297Z,18.72
2018-05-06T08:40:48.447Z,18.87
2018-05-06T08:41:48.253Z,18.99
2018-05-06T08:43:41.403Z,19.18
2018-05-06T08:44:41.210Z,19.28
2018-05-06T08:46:34.360Z,19.54
2018-05-06T08:47:34.175Z,19.57
2018-05-06T08:49:27.313Z,19.88
2018-05-06T08:50:27.123Z,20.05
2018-05-06T08:52:20.275Z,20.20
2018-05-06T08:53:20.254Z,20.38
2018-05-06T08:55:13.152Z,20.59
2018-05-06T08:56:13.034Z,20.64
2018-05-06T08:58:05.949Z,20.89
2018-05-06T08:59:05.922Z,21.11
2018-05-06T09:00:58.856Z,21.38
2018-05-06T09:01:58.772Z,21.50
2018-05-06T09:03:51.721Z,21.74
2018-05-06T09:04:51.624Z,21.79
2018-05-06T09:06:44.556Z,22.13
2018-05-06T09:07:44.476Z,22.34
2018-05-06T09:09:37.409Z,22.64
2018-05-06T09:10:37.323Z,22.74
2018-05-06T09:12:30.262Z,23.07
2018-05-06T09:13:30.176Z,23.23
2018-05-06T09:15:23.114Z,23.43
2018-05-06T09:16:23.028Z,23.46
2018-05-06T09:18:15.916Z,23.22
2018-05-06T09:19:15.881Z,23.35
2018-05-06T09:21:08.811Z,23.71
2018-05-06T09:22:08.732Z,23.98
2018-05-06T09:24:01.663Z,24.29
2018-05-06T09:25:01.582Z,24.53
2018-05-06T09:26:54.612Z,25.12
2018-05-06T09:27:54.532Z,25.39
2018-05-06T09:29:47.467Z,25.35
2018-05-06T09:30:47.387Z,25.20
2018-05-06T09:32:40.416Z,25.38
2018-05-06T09:33:40.342Z,25.50
2018-05-06T09:35:33.268Z,25.71
2018-05-06T09:36:33.192Z,25.80
2018-05-06T09:38:26.120Z,26.36
2018-05-06T09:39:26.041Z,26.37
2018-05-06T09:41:18.972Z,26.40
2018-05-06T09:42:18.891Z,26.57
2018-05-06T09:44:11.926Z,26.83
2018-05-06T09:45:11.848Z,26.95
2018-05-06T09:47:04.893Z,27.23
2018-05-06T09:48:04.801Z,27.36
2018-05-06T09:49:57.831Z,27.20
2018-05-06T09:50:57.753Z,27.31
2018-05-06T09:52:50.785Z,27.42
2018-05-06T09:53:50.789Z,27.76
2018-05-06T09:55:43.771Z,28.13
2018-05-06T09:56:43.680Z,28.16
2018-05-06T09:58:36.584Z,28.19
2018-05-06T09:59:36.509Z,28.26
2018-05-06T10:01:29.542Z,27.88
2018-05-06T10:02:29.462Z,27.95
2018-05-06T10:04:22.493Z,27.73
2018-05-06T10:05:22.418Z,27.76
2018-05-06T10:07:15.443Z,27.94
2018-05-06T10:08:15.407Z,28.03
2018-05-06T10:10:08.397Z,28.16
2018-05-06T10:11:08.323Z,28.40
2018-05-06T10:13:01.351Z,28.81
2018-05-06T10:14:01.281Z,28.90
2018-05-06T10:15:54.373Z,28.80
2018-05-06T10:16:54.233Z,28.87
2018-05-06T10:18:47.256Z,28.36
2018-05-06T10:19:47.186Z,28.11
2018-05-06T10:21:40.211Z,28.69
2018-05-06T10:22:40.136Z,28.69
2018-05-06T10:24:33.165Z,28.68
2018-05-06T10:25:33.082Z,28.81
2018-05-06T10:27:26.065Z,29.07
2018-05-06T10:28:26.100Z,29.07
2018-05-06T10:30:19.072Z,29.29
2018-05-06T10:31:18.994Z,29.34
2018-05-06T10:33:12.042Z,29.53
2018-05-06T10:34:11.953Z,29.60
2018-05-06T10:36:04.989Z,29.99
2018-05-06T10:37:04.902Z,30.27
2018-05-06T10:38:57.932Z,30.46
2018-05-06T10:39:57.855Z,30.15
2018-05-06T10:41:50.891Z,29.72
2018-05-06T10:42:50.813Z,29.44
2018-05-06T10:44:51.827Z,29.40
2018-05-06T10:45:43.770Z,29.35
2018-05-06T10:47:36.792Z,29.43
2018-05-06T10:48:36.719Z,29.47
2018-05-06T10:50:30.343Z,29.55
2018-05-06T10:51:30.179Z,29.63
2018-05-06T10:53:23.237Z,29.90
2018-05-06T10:54:23.137Z,29.82
2018-05-06T10:55:23.196Z,29.96
2018-05-06T10:56:23.110Z,30.09
2018-05-06T10:57:23.207Z,30.12
2018-05-06T10:58:23.084Z,30.11
2018-05-06T10:59:23.118Z,30.09
2018-05-06T11:00:23.064Z,30.02
2018-05-06T11:01:23.129Z,30.16
2018-05-06T11:02:23.038Z,30.26
2018-05-06T11:03:23.044Z,30.43
2018-05-06T11:04:23.012Z,30.52
2018-05-06T11:05:23.055Z,30.56
2018-05-06T11:06:22.986Z,30.52
2018-05-06T11:07:23.070Z,30.50
2018-05-06T11:08:23.017Z,30.67
2018-05-06T11:09:22.978Z,30.74
2018-05-06T11:10:23.006Z,30.83
2018-05-06T11:11:22.993Z,30.91
2018-05-06T11:12:22.917Z,30.68
2018-05-06T11:13:23.081Z,30.69
2018-05-06T11:14:22.899Z,30.69
2018-05-06T11:15:22.992Z,30.61
2018-05-06T11:16:22.867Z,30.50
2018-05-06T11:17:22.858Z,30.38
2018-05-06T11:18:23.014Z,30.40
2018-05-06T11:19:22.836Z,30.36
2018-05-06T11:20:22.925Z,30.40
2018-05-06T11:21:22.810Z,30.50
2018-05-06T11:22:22.801Z,30.57
2018-05-06T11:23:22.952Z,30.74
2018-05-06T11:24:22.777Z,30.74
2018-05-06T11:25:22.969Z,30.72
2018-05-06T11:26:22.874Z,30.72
2018-05-06T11:27:22.871Z,30.84
2018-05-06T11:28:22.732Z,30.91
2018-05-06T11:29:22.888Z,30.94
2018-05-06T11:30:22.721Z,30.91
2018-05-06T11:31:22.901Z,31.04
2018-05-06T11:32:22.687Z,31.04
2018-05-06T11:33:22.864Z,31.04
2018-05-06T11:34:22.666Z,31.17
2018-05-06T11:35:22.827Z,31.46
2018-05-06T11:36:22.647Z,31.39
2018-05-06T11:37:22.842Z,31.04
2018-05-06T11:38:22.622Z,30.94
2018-05-06T11:39:22.752Z,31.05
2018-05-06T11:40:22.599Z,31.13
2018-05-06T11:41:22.766Z,31.26
2018-05-06T11:42:22.579Z,31.39
2018-05-06T11:43:22.780Z,31.45
2018-05-06T11:44:22.559Z,31.42
2018-05-06T11:45:22.691Z,31.40
2018-05-06T11:46:22.536Z,31.35
2018-05-06T11:47:22.706Z,31.40
2018-05-06T11:48:22.516Z,31.20
2018-05-06T11:49:22.721Z,31.26
2018-05-06T11:50:22.497Z,31.43
2018-05-06T11:51:22.534Z,31.54
2018-05-06T11:52:22.488Z,31.39
2018-05-06T11:53:22.544Z,31.24
2018-05-06T11:54:22.453Z,31.23
2018-05-06T11:55:22.558Z,31.40
2018-05-06T11:56:22.466Z,31.43
2018-05-06T11:57:22.469Z,31.43
2018-05-06T11:58:22.414Z,31.39
2018-05-06T11:59:22.483Z,31.43
2018-05-06T12:00:22.392Z,31.43
2018-05-06T12:01:22.497Z,31.65
2018-05-06T12:02:22.426Z,31.73
2018-05-06T12:03:22.409Z,31.80
2018-05-06T12:04:22.352Z,32.02
2018-05-06T12:05:22.423Z,32.22
2018-05-06T12:06:22.332Z,32.27
2018-05-06T12:07:22.436Z,32.18
2018-05-06T12:08:22.343Z,32.22
2018-05-06T12:09:22.348Z,32.29
2018-05-06T12:10:22.293Z,32.20
2018-05-06T12:11:22.383Z,32.22
2018-05-06T12:12:22.279Z,31.99
2018-05-06T12:13:22.376Z,31.85
2018-05-06T12:14:22.255Z,31.77
2018-05-06T12:15:22.288Z,31.82
2018-05-06T12:16:22.235Z,31.93
2018-05-06T12:17:22.301Z,32.10
2018-05-06T12:18:22.217Z,32.06
2018-05-06T12:19:22.338Z,32.06
2018-05-06T12:20:22.197Z,31.96
2018-05-06T12:21:22.330Z,31.98
2018-05-06T12:22:22.177Z,31.88
2018-05-06T12:23:22.241Z,31.80
2018-05-06T12:24:22.166Z,31.82
2018-05-06T12:25:22.255Z,31.88
2018-05-06T12:26:22.141Z,32.06
2018-05-06T12:27:22.271Z,32.05
2018-05-06T12:28:22.125Z,32.07
2018-05-06T12:29:22.183Z,32.18
2018-05-06T12:30:22.103Z,32.21
2018-05-06T12:31:22.198Z,32.44
2018-05-06T12:32:22.087Z,32.58
2018-05-06T12:33:22.211Z,32.69
2018-05-06T12:34:22.070Z,32.67
2018-05-06T12:35:22.123Z,32.52
2018-05-06T12:36:22.050Z,32.44
2018-05-06T12:37:22.135Z,32.30
2018-05-06T12:38:22.030Z,32.30
2018-05-06T12:39:22.162Z,32.33
2018-05-06T12:40:22.012Z,32.33
2018-05-06T12:41:22.165Z,32.33
2018-05-06T12:42:21.995Z,32.39
2018-05-06T12:43:22.086Z,32.52
2018-05-06T12:44:21.977Z,32.62
2018-05-06T12:45:22.090Z,32.77
2018-05-06T12:46:21.957Z,32.86
2018-05-06T12:47:22.110Z,33.01
2018-05-06T12:48:21.942Z,32.93
2018-05-06T12:49:22.044Z,32.95
2018-05-06T12:50:21.951Z,32.71
2018-05-06T12:51:22.047Z,32.73
2018-05-06T12:52:21.908Z,32.77
2018-05-06T12:53:22.051Z,32.69
2018-05-06T12:54:21.924Z,32.69
2018-05-06T12:55:21.987Z,32.76
2018-05-06T12:56:21.872Z,32.81
2018-05-06T12:57:21.975Z,32.91
2018-05-06T12:58:21.856Z,32.89
2018-05-06T12:59:21.988Z,32.84
2018-05-06T13:00:21.840Z,32.76
2018-05-06T13:01:21.999Z,32.91
2018-05-06T13:02:21.882Z,33.15
2018-05-06T13:03:21.914Z,33.34
2018-05-06T13:04:21.808Z,33.39
2018-05-06T13:05:21.934Z,33.42
2018-05-06T13:06:21.787Z,33.33
2018-05-06T13:07:21.942Z,33.33
2018-05-06T13:08:21.771Z,33.30
2018-05-06T13:09:21.854Z,33.34
2018-05-06T13:10:21.760Z,33.30
2018-05-06T13:11:21.916Z,33.36
2018-05-06T13:12:21.737Z,33.34
2018-05-06T13:13:21.872Z,33.48
2018-05-06T13:14:21.722Z,33.53
2018-05-06T13:15:21.896Z,33.53
2018-05-06T13:16:21.709Z,33.42
2018-05-06T13:17:21.810Z,33.27
2018-05-06T13:18:21.691Z,33.31
2018-05-06T13:19:21.821Z,33.31
2018-05-06T13:20:21.675Z,33.27
2018-05-06T13:21:21.835Z,33.23
2018-05-06T13:22:21.656Z,33.31
2018-05-06T13:23:21.745Z,33.37
2018-05-06T13:24:21.638Z,33.31
2018-05-06T13:25:21.760Z,33.27
2018-05-06T13:26:21.621Z,33.31
2018-05-06T13:27:22.801Z,33.39
2018-05-06T13:28:21.609Z,33.36
2018-05-06T13:29:21.789Z,33.23
2018-05-06T13:30:21.590Z,33.19
2018-05-06T13:31:21.699Z,33.26
2018-05-06T13:32:21.576Z,33.30
2018-05-06T13:33:21.711Z,33.27
2018-05-06T13:34:21.560Z,33.34
2018-05-06T13:35:21.730Z,33.30
2018-05-06T13:36:21.549Z,33.14
2018-05-06T13:37:21.743Z,33.11
2018-05-06T13:38:21.525Z,33.08
2018-05-06T13:39:21.653Z,33.03
2018-05-06T13:40:21.514Z,32.84
2018-05-06T13:41:21.666Z,32.64
2018-05-06T13:42:21.498Z,32.36
2018-05-06T13:43:21.681Z,32.30
2018-05-06T13:44:21.483Z,32.39
2018-05-06T13:45:21.593Z,32.49
2018-05-06T13:46:21.468Z,32.69
2018-05-06T13:47:21.607Z,32.79
2018-05-06T13:48:21.452Z,32.86
2018-05-06T13:49:21.621Z,32.99
2018-05-06T13:50:21.435Z,33.08
2018-05-06T13:51:21.635Z,33.08
2018-05-06T13:52:21.418Z,33.20
2018-05-06T13:53:21.546Z,33.23
2018-05-06T13:54:21.406Z,33.10
2018-05-06T13:55:21.560Z,33.06
2018-05-06T13:56:21.388Z,33.04
2018-05-06T13:57:21.575Z,33.01
2018-05-06T13:58:21.376Z,33.07
2018-05-06T13:59:21.384Z,33.13
2018-05-06T14:00:21.357Z,33.06
2018-05-06T14:01:21.440Z,33.15
2018-05-06T14:02:21.344Z,33.07
2018-05-06T14:03:21.410Z,32.99
2018-05-06T14:04:21.325Z,32.98
2018-05-06T14:05:21.426Z,33.04
2018-05-06T14:06:21.307Z,32.98
2018-05-06T14:07:21.336Z,32.96
2018-05-06T14:08:21.293Z,33.06
2018-05-06T14:09:21.358Z,33.11
2018-05-06T14:10:21.276Z,33.10
2018-05-06T14:11:21.373Z,33.03
2018-05-06T14:12:21.265Z,32.88
2018-05-06T14:13:21.384Z,32.77
2018-05-06T14:14:21.244Z,32.86
2018-05-06T14:15:21.294Z,32.88
2018-05-06T14:16:21.231Z,32.93
2018-05-06T14:17:21.307Z,32.98
2018-05-06T14:18:21.212Z,33.06
2018-05-06T14:19:21.338Z,33.11
2018-05-06T14:20:21.201Z,33.33
2018-05-06T14:21:21.231Z,33.31
2018-05-06T14:22:21.183Z,33.33
2018-05-06T14:23:21.245Z,33.20
2018-05-06T14:24:21.166Z,33.22
2018-05-06T14:25:21.262Z,33.31
2018-05-06T14:26:21.156Z,33.34
2018-05-06T14:27:21.275Z,33.31
2018-05-06T14:28:21.136Z,33.34
2018-05-06T14:29:21.187Z,33.34
2018-05-06T14:30:21.120Z,33.34
2018-05-06T14:31:21.206Z,33.22
2018-05-06T14:32:21.106Z,32.93
2018-05-06T14:33:21.217Z,32.89
2018-05-06T14:34:21.093Z,32.92
2018-05-06T14:35:21.231Z,33.04
2018-05-06T14:36:21.077Z,33.08
2018-05-06T14:37:21.143Z,33.11
2018-05-06T14:38:21.058Z,33.15
2018-05-06T14:39:21.154Z,33.22
2018-05-06T14:40:21.048Z,33.22
2018-05-06T14:41:21.168Z,33.22
2018-05-06T14:42:21.031Z,33.23
2018-05-06T14:43:21.276Z,33.26
2018-05-06T14:44:21.014Z,33.39
2018-05-06T14:45:21.094Z,33.41
2018-05-06T14:46:20.996Z,33.46
2018-05-06T14:47:21.009Z,33.30
2018-05-06T14:48:20.983Z,33.30
2018-05-06T14:49:20.974Z,33.30
2018-05-06T14:50:21.029Z,33.31
2018-05-06T14:51:20.962Z,33.42
2018-05-06T14:52:21.042Z,33.42
2018-05-06T14:53:20.941Z,33.46
2018-05-06T14:54:20.953Z,33.52
2018-05-06T14:55:20.965Z,33.46
2018-05-06T14:56:20.966Z,33.61
2018-05-06T14:57:20.911Z,33.52
2018-05-06T14:58:20.982Z,33.60
2018-05-06T14:59:20.896Z,33.67
2018-05-06T15:00:21.921Z,33.61
2018-05-06T15:01:20.883Z,33.49
2018-05-06T15:02:20.908Z,33.42
2018-05-06T15:03:20.867Z,33.45
2018-05-06T15:04:20.920Z,33.51
2018-05-06T15:05:20.853Z,33.30
2018-05-06T15:06:20.941Z,33.10